createdAt,value
2023-05-11T00:00:27.218Z,0.00
2023-05-11T00:01:27.224Z,0.00
2023-05-11T00:02:27.304Z,0.00
2023-05-11T00:03:27.276Z,0.00
2023-05-11T00:04:27.308Z,0.00
2023-05-11T00:05:27.222Z,0.00
2023-05-11T00:06:27.173Z,0.00
2023-05-11T00:07:27.162Z,0.00
2023-05-11T00:08:27.151Z,0.00
2023-05-11T00:09:27.204Z,0.00
2023-05-11T00:10:27.155Z,0.00
2023-05-11T00:11:27.138Z,0.00
2023-05-11T00:12:27.153Z,0.00
2023-05-11T00:13:27.126Z,0.00
2023-05-11T00:14:27.102Z,0.00
2023-05-11T00:15:27.225Z,0.00
2023-05-11T00:16:27.199Z,0.00
2023-05-11T00:17:27.140Z,0.00
2023-05-11T00:18:27.106Z,0.00
2023-05-11T00:19:27.076Z,0.00
2023-05-11T00:20:27.068Z,0.00
2023-05-11T00:21:27.080Z,0.00
2023-05-11T00:22:27.044Z,0.00
2023-05-11T00:23:27.042Z,0.00
2023-05-11T00:24:27.040Z,0.00
2023-05-11T00:25:27.031Z,0.00
2023-05-11T00:26:27.002Z,0.00
2023-05-11T00:27:27.029Z,0.00
2023-05-11T00:28:27.000Z,0.00
2023-05-11T00:29:26.999Z,0.00
2023-05-11T00:30:26.976Z,0.00
2023-05-11T00:31:30.171Z,0.00
2023-05-11T00:32:26.996Z,0.00
2023-05-11T00:33:27.007Z,0.00
2023-05-11T00:34:26.957Z,0.00
2023-05-11T00:35:26.946Z,0.00
2023-05-11T00:36:26.958Z,0.00
2023-05-11T00:37:26.912Z,0.00
2023-05-11T00:38:26.939Z,0.00
2023-05-11T00:39:26.937Z,0.00
2023-05-11T00:40:26.897Z,0.00
2023-05-11T00:41:26.910Z,0.00
2023-05-11T00:42:26.886Z,0.00
2023-05-11T00:43:26.886Z,0.00
2023-05-11T00:44:26.858Z,0.00
2023-05-11T00:45:26.948Z,0.00
2023-05-11T00:46:26.867Z,0.00
2023-05-11T00:47:26.870Z,0.00
2023-05-11T00:48:26.864Z,0.00
2023-05-11T00:49:26.865Z,0.00
2023-05-11T00:50:26.828Z,0.00
2023-05-11T00:51:26.870Z,0.00
2023-05-11T00:52:26.859Z,0.00
2023-05-11T00:53:26.819Z,0.00
2023-05-11T00:54:26.789Z,0.00
2023-05-11T00:55:26.781Z,0.00
2023-05-11T00:56:26.795Z,0.00
2023-05-11T00:57:26.803Z,0.00
2023-05-11T00:58:26.762Z,0.00
2023-05-11T00:59:26.753Z,0.00
2023-05-11T01:00:26.790Z,0.00
2023-05-11T01:01:26.749Z,0.00
2023-05-11T01:02:26.773Z,0.00
2023-05-11T01:03:26.768Z,0.00
2023-05-11T01:04:26.697Z,0.00
2023-05-11T01:05:26.704Z,0.00
2023-05-11T01:06:26.679Z,0.00
2023-05-11T01:07:26.691Z,0.00
2023-05-11T01:08:26.678Z,0.00
2023-05-11T01:09:26.707Z,0.00
2023-05-11T01:10:26.673Z,0.00
2023-05-11T01:11:26.719Z,0.00
2023-05-11T01:12:26.651Z,0.00
2023-05-11T01:13:26.658Z,0.00
2023-05-11T01:14:26.653Z,0.00
2023-05-11T01:15:26.629Z,0.00
2023-05-11T01:16:26.649Z,0.00
2023-05-11T01:17:26.630Z,0.00
2023-05-11T01:18:26.662Z,0.00
2023-05-11T01:19:26.618Z,0.00
2023-05-11T01:20:26.584Z,0.00
2023-05-11T01:21:26.572Z,0.00
2023-05-11T01:22:26.595Z,0.00
2023-05-11T01:23:26.600Z,0.00
2023-05-11T01:24:26.557Z,0.00
2023-05-11T01:25:26.584Z,0.00
2023-05-11T01:26:26.622Z,0.00
2023-05-11T01:27:26.546Z,0.00
2023-05-11T01:28:26.515Z,0.00
2023-05-11T01:29:26.573Z,0.00
2023-05-11T01:30:26.521Z,0.00
2023-05-11T01:31:26.636Z,0.00
2023-05-11T01:32:26.512Z,0.00
2023-05-11T01:33:26.486Z,0.00
2023-05-11T01:34:26.475Z,0.00
2023-05-11T01:35:26.471Z,0.00
2023-05-11T01:36:26.684Z,0.00
2023-05-11T01:37:26.681Z,0.00
2023-05-11T01:38:26.516Z,0.00
2023-05-11T01:39:26.453Z,0.00
2023-05-11T01:40:26.431Z,0.00
2023-05-11T01:41:26.440Z,0.00
2023-05-11T01:42:26.412Z,0.00
2023-05-11T01:43:26.449Z,0.00
2023-05-11T01:44:26.400Z,0.00
2023-05-11T01:45:26.400Z,0.00
2023-05-11T01:46:26.489Z,0.00
2023-05-11T01:47:26.447Z,0.00
2023-05-11T01:48:26.378Z,0.00
2023-05-11T01:49:26.387Z,0.00
2023-05-11T01:50:26.351Z,0.00
2023-05-11T01:51:26.357Z,0.00
2023-05-11T01:52:26.351Z,0.00
2023-05-11T01:53:26.341Z,0.00
2023-05-11T01:54:26.321Z,0.00
2023-05-11T01:55:26.381Z,0.00
2023-05-11T01:56:26.303Z,0.00
2023-05-11T01:57:26.302Z,0.00
2023-05-11T01:58:26.277Z,0.00
2023-05-11T01:59:26.318Z,0.00
2023-05-11T02:00:26.268Z,0.00
2023-05-11T02:01:26.323Z,0.00
2023-05-11T02:02:26.342Z,0.00
2023-05-11T02:03:26.431Z,0.00
2023-05-11T02:04:26.236Z,0.00
2023-05-11T02:05:26.230Z,0.00
2023-05-11T02:06:26.240Z,0.00
2023-05-11T02:07:26.280Z,0.00
2023-05-11T02:08:26.212Z,0.00
2023-05-11T02:09:26.205Z,0.00
2023-05-11T02:10:26.198Z,0.00
2023-05-11T02:11:26.183Z,0.00
2023-05-11T02:12:26.189Z,0.00
2023-05-11T02:13:26.192Z,0.00
2023-05-11T02:14:26.170Z,0.00
2023-05-11T02:15:26.171Z,0.00
2023-05-11T02:16:26.156Z,0.00
2023-05-11T02:17:26.198Z,0.00
2023-05-11T02:18:26.148Z,0.00
2023-05-11T02:19:26.150Z,0.00
2023-05-11T02:20:26.122Z,0.00
2023-05-11T02:21:26.138Z,0.00
2023-05-11T02:22:26.088Z,0.00
2023-05-11T02:23:26.092Z,0.00
2023-05-11T02:24:26.090Z,0.00
2023-05-11T02:25:26.103Z,0.00
2023-05-11T02:26:26.068Z,0.00
2023-05-11T02:27:26.059Z,0.00
2023-05-11T02:28:26.062Z,0.00
2023-05-11T02:29:26.047Z,0.00
2023-05-11T02:30:26.025Z,0.00
2023-05-11T02:31:26.114Z,0.00
2023-05-11T02:32:26.021Z,0.00
2023-05-11T02:33:26.010Z,0.00
2023-05-11T02:34:26.094Z,0.00
2023-05-11T02:35:25.993Z,0.00
2023-05-11T02:36:26.103Z,0.00
2023-05-11T02:37:26.008Z,0.00
2023-05-11T02:38:25.980Z,0.00
2023-05-11T02:39:25.965Z,0.00
2023-05-11T02:40:25.936Z,0.00
2023-05-11T02:41:25.962Z,0.00
2023-05-11T02:42:25.924Z,0.00
2023-05-11T02:43:25.950Z,0.00
2023-05-11T02:44:25.915Z,0.00
2023-05-11T02:45:25.981Z,0.00
2023-05-11T02:46:25.991Z,0.00
2023-05-11T02:47:25.955Z,0.00
2023-05-11T02:48:25.919Z,0.00
2023-05-11T02:49:25.907Z,0.00
2023-05-11T02:50:25.872Z,0.00
2023-05-11T02:51:25.861Z,0.00
2023-05-11T02:52:25.850Z,0.00
2023-05-11T02:53:25.851Z,0.00
2023-05-11T02:54:25.866Z,0.00
2023-05-11T02:55:25.853Z,0.00
2023-05-11T02:56:25.806Z,0.00
2023-05-11T02:57:25.822Z,0.00
2023-05-11T02:58:25.848Z,0.00
2023-05-11T02:59:25.861Z,0.00
2023-05-11T03:00:25.845Z,0.00
2023-05-11T03:01:26.849Z,0.00
2023-05-11T03:02:26.034Z,0.00
2023-05-11T03:03:25.836Z,1.00
2023-05-11T03:04:25.756Z,1.00
2023-05-11T03:05:25.757Z,1.00
2023-05-11T03:06:25.767Z,1.00
2023-05-11T03:07:25.778Z,0.00
2023-05-11T03:08:25.716Z,0.00
2023-05-11T03:09:25.726Z,1.00
2023-05-11T03:10:25.796Z,1.00
2023-05-11T03:11:25.709Z,1.00
2023-05-11T03:12:25.675Z,1.00
2023-05-11T03:13:25.710Z,2.00
2023-05-11T03:14:25.684Z,1.00
2023-05-11T03:15:25.691Z,2.00
2023-05-11T03:16:25.677Z,2.00
2023-05-11T03:17:25.716Z,3.00
2023-05-11T03:18:25.716Z,2.00
2023-05-11T03:19:25.668Z,3.00
2023-05-11T03:20:25.645Z,3.00
2023-05-11T03:21:25.636Z,4.00
2023-05-11T03:22:25.617Z,6.00
2023-05-11T03:23:25.595Z,6.00
2023-05-11T03:24:25.587Z,6.00
2023-05-11T03:25:25.616Z,7.00
2023-05-11T03:26:25.580Z,8.00
2023-05-11T03:27:25.580Z,9.00
2023-05-11T03:28:25.567Z,9.00
2023-05-11T03:29:25.581Z,12.00
2023-05-11T03:30:25.555Z,13.00
2023-05-11T03:31:25.643Z,13.00
2023-05-11T03:32:25.693Z,14.00
2023-05-11T03:33:25.536Z,14.00
2023-05-11T03:34:25.525Z,18.00
2023-05-11T03:35:25.508Z,18.00
2023-05-11T03:36:25.501Z,19.00
2023-05-11T03:37:25.533Z,20.00
2023-05-11T03:38:25.475Z,20.00
2023-05-11T03:39:25.510Z,23.00
2023-05-11T03:40:25.517Z,25.00
2023-05-11T03:41:25.474Z,25.00
2023-05-11T03:42:25.449Z,25.00
2023-05-11T03:43:25.505Z,27.00
2023-05-11T03:44:25.433Z,31.00
2023-05-11T03:45:25.441Z,31.00
2023-05-11T03:46:25.526Z,31.00
2023-05-11T03:47:25.459Z,31.00
2023-05-11T03:48:25.427Z,32.00
2023-05-11T03:49:25.442Z,34.00
2023-05-11T03:50:25.411Z,38.00
2023-05-11T03:51:25.430Z,38.00
2023-05-11T03:52:25.397Z,44.00
2023-05-11T03:53:25.392Z,48.00
2023-05-11T03:54:25.393Z,50.00
2023-05-11T03:55:25.406Z,53.00
2023-05-11T03:56:25.385Z,56.00
2023-05-11T03:57:25.478Z,63.00
2023-05-11T03:58:25.342Z,68.00
2023-05-11T03:59:25.338Z,73.00
2023-05-11T04:00:25.345Z,79.00
2023-05-11T04:01:25.351Z,87.00
2023-05-11T04:02:25.334Z,92.00
2023-05-11T04:03:25.476Z,95.00
2023-05-11T04:04:25.358Z,99.00
2023-05-11T04:05:25.285Z,100.00
2023-05-11T04:06:25.293Z,105.00
2023-05-11T04:07:25.292Z,110.00
2023-05-11T04:08:25.266Z,116.00
2023-05-11T04:09:25.262Z,118.00
2023-05-11T04:10:25.250Z,122.00
2023-05-11T04:11:25.222Z,128.00
2023-05-11T04:12:25.237Z,134.00
2023-05-11T04:13:25.232Z,139.00
2023-05-11T04:14:25.210Z,146.00
2023-05-11T04:15:25.223Z,151.00
2023-05-11T04:16:25.289Z,152.00
2023-05-11T04:17:25.209Z,155.00
2023-05-11T04:18:25.697Z,159.00
2023-05-11T04:19:25.165Z,163.00
2023-05-11T04:20:25.168Z,166.00
2023-05-11T04:21:25.137Z,168.00
2023-05-11T04:22:25.140Z,172.00
2023-05-11T04:23:25.160Z,177.00
2023-05-11T04:24:25.249Z,184.00
2023-05-11T04:25:25.115Z,185.00
2023-05-11T04:26:25.108Z,188.00
2023-05-11T04:27:25.104Z,193.00
2023-05-11T04:28:25.133Z,196.00
2023-05-11T04:29:25.101Z,199.00
2023-05-11T04:30:25.116Z,201.00
2023-05-11T04:31:25.097Z,203.00
2023-05-11T04:32:25.169Z,205.00
2023-05-11T04:33:25.095Z,210.00
2023-05-11T04:34:25.041Z,218.00
2023-05-11T04:35:25.046Z,230.00
2023-05-11T04:36:25.135Z,243.00
2023-05-11T04:37:25.040Z,252.00
2023-05-11T04:38:25.043Z,263.00
2023-05-11T04:39:25.037Z,278.00
2023-05-11T04:40:24.994Z,293.00
2023-05-11T04:41:24.979Z,309.00
2023-05-11T04:42:25.024Z,324.00
2023-05-11T04:43:24.965Z,339.00
2023-05-11T04:44:24.984Z,350.00
2023-05-11T04:45:24.995Z,359.00
2023-05-11T04:46:24.975Z,366.00
2023-05-11T04:47:24.959Z,376.00
2023-05-11T04:48:24.960Z,382.00
2023-05-11T04:49:25.039Z,391.00
2023-05-11T04:50:24.909Z,398.00
2023-05-11T04:51:24.906Z,400.00
2023-05-11T04:52:24.909Z,403.00
2023-05-11T04:53:24.883Z,403.00
2023-05-11T04:54:24.927Z,413.00
2023-05-11T04:55:24.877Z,431.00
2023-05-11T04:56:24.885Z,444.00
2023-05-11T04:57:24.863Z,458.00
2023-05-11T04:58:24.877Z,477.00
2023-05-11T04:59:24.930Z,502.00
2023-05-11T05:00:24.966Z,533.00
2023-05-11T05:01:24.882Z,572.00
2023-05-11T05:02:24.879Z,613.00
2023-05-11T05:03:24.898Z,657.00
2023-05-11T05:04:24.894Z,694.00
2023-05-11T05:05:24.831Z,734.00
2023-05-11T05:06:24.837Z,771.00
2023-05-11T05:07:24.790Z,801.00
2023-05-11T05:08:24.807Z,826.00
2023-05-11T05:09:24.780Z,839.00
2023-05-11T05:10:24.767Z,844.00
2023-05-11T05:11:25.631Z,850.00
2023-05-11T05:12:27.848Z,875.00
2023-05-11T05:13:24.803Z,910.00
2023-05-11T05:14:24.744Z,959.00
2023-05-11T05:15:25.228Z,1011.00
2023-05-11T05:16:25.777Z,1067.00
2023-05-11T05:17:25.591Z,1117.00
2023-05-11T05:18:26.171Z,1148.00
2023-05-11T05:19:25.653Z,1164.00
2023-05-11T05:20:25.167Z,1180.00
2023-05-11T05:21:25.670Z,1193.00
2023-05-11T05:22:25.851Z,1200.00
2023-05-11T05:23:24.759Z,1209.00
2023-05-11T05:24:24.715Z,1222.00
2023-05-11T05:25:24.644Z,1240.00
2023-05-11T05:26:24.680Z,1254.00
2023-05-11T05:27:24.679Z,1255.00
2023-05-11T05:28:24.616Z,1261.00
2023-05-11T05:29:24.603Z,1259.00
2023-05-11T05:30:24.649Z,1242.00
2023-05-11T05:31:24.635Z,1229.00
2023-05-11T05:32:24.761Z,1213.00
2023-05-11T05:33:24.583Z,1190.00
2023-05-11T05:34:24.581Z,1183.00
2023-05-11T05:35:24.554Z,1172.00
2023-05-11T05:36:24.583Z,1164.00
2023-05-11T05:37:24.546Z,1140.00
2023-05-11T05:38:24.726Z,1103.00
2023-05-11T05:39:24.529Z,1085.00
2023-05-11T05:40:24.539Z,1054.00
2023-05-11T05:41:24.515Z,1028.00
2023-05-11T05:42:24.544Z,998.00
2023-05-11T05:43:24.514Z,967.00
2023-05-11T05:44:24.551Z,944.00
2023-05-11T05:45:24.500Z,926.00
2023-05-11T05:46:24.514Z,910.00
2023-05-11T05:47:24.486Z,897.00
2023-05-11T05:48:24.480Z,887.00
2023-05-11T05:49:24.436Z,876.00
2023-05-11T05:50:24.483Z,865.00
2023-05-11T05:51:24.459Z,862.00
2023-05-11T05:52:24.570Z,851.00
2023-05-11T05:53:24.413Z,834.00
2023-05-11T05:54:24.430Z,821.00
2023-05-11T05:55:24.429Z,808.00
2023-05-11T05:56:24.427Z,798.00
2023-05-11T05:57:24.383Z,804.00
2023-05-11T05:58:24.458Z,808.00
2023-05-11T05:59:24.396Z,822.00
2023-05-11T06:00:24.390Z,831.00
2023-05-11T06:01:24.364Z,837.00
2023-05-11T06:02:24.429Z,822.00
2023-05-11T06:03:25.841Z,814.00
2023-05-11T06:04:24.428Z,812.00
2023-05-11T06:05:24.346Z,822.00
2023-05-11T06:06:24.327Z,819.00
2023-05-11T06:07:24.320Z,814.00
2023-05-11T06:08:24.358Z,814.00
2023-05-11T06:09:24.290Z,808.00
2023-05-11T06:10:24.320Z,797.00
2023-05-11T06:11:24.286Z,791.00
2023-05-11T06:12:24.278Z,782.00
2023-05-11T06:13:24.265Z,775.00
2023-05-11T06:14:24.260Z,776.00
2023-05-11T06:15:24.250Z,791.00
2023-05-11T06:16:24.358Z,790.00
2023-05-11T06:17:24.273Z,790.00
2023-05-11T06:18:24.289Z,792.00
2023-05-11T06:19:24.227Z,811.00
2023-05-11T06:20:24.346Z,826.00
2023-05-11T06:21:24.209Z,830.00
2023-05-11T06:22:24.216Z,829.00
2023-05-11T06:23:24.205Z,830.00
2023-05-11T06:24:24.189Z,829.00
2023-05-11T06:25:24.171Z,828.00
2023-05-11T06:26:24.180Z,844.00
2023-05-11T06:27:24.176Z,864.00
2023-05-11T06:28:24.150Z,878.00
2023-05-11T06:29:24.140Z,892.00
2023-05-11T06:30:24.129Z,909.00
2023-05-11T06:31:24.191Z,918.00
2023-05-11T06:32:24.148Z,930.00
2023-05-11T06:33:24.143Z,927.00
2023-05-11T06:34:24.117Z,923.00
2023-05-11T06:35:24.105Z,928.00
2023-05-11T06:36:24.104Z,943.00
2023-05-11T06:37:24.078Z,967.00
2023-05-11T06:38:24.109Z,986.00
2023-05-11T06:39:24.130Z,1004.00
2023-05-11T06:40:24.059Z,1007.00
2023-05-11T06:41:24.290Z,1004.00
2023-05-11T06:42:24.062Z,1002.00
2023-05-11T06:43:24.020Z,1018.00
2023-05-11T06:44:24.025Z,1035.00
2023-05-11T06:45:24.181Z,1041.00
2023-05-11T06:46:24.084Z,1047.00
2023-05-11T06:47:24.022Z,1052.00
2023-05-11T06:48:24.180Z,1048.00
2023-05-11T06:49:23.985Z,1035.00
2023-05-11T06:50:25.844Z,1027.00
2023-05-11T06:51:24.028Z,1025.00
2023-05-11T06:52:23.963Z,1033.00
2023-05-11T06:53:23.964Z,1053.00
2023-05-11T06:54:23.981Z,1079.00
2023-05-11T06:55:23.964Z,1107.00
2023-05-11T06:56:23.926Z,1136.00
2023-05-11T06:57:23.910Z,1176.00
2023-05-11T06:58:24.170Z,1205.00
2023-05-11T06:59:24.686Z,1237.00
2023-05-11T07:00:23.937Z,1271.00
2023-05-11T07:01:24.185Z,1303.00
2023-05-11T07:02:23.890Z,1331.00
2023-05-11T07:03:23.884Z,1368.00
2023-05-11T07:04:23.944Z,1425.00
2023-05-11T07:05:24.755Z,1504.00
2023-05-11T07:06:23.885Z,1579.00
2023-05-11T07:07:23.872Z,1635.00
2023-05-11T07:08:23.837Z,1673.00
2023-05-11T07:09:23.842Z,1686.00
2023-05-11T07:10:23.881Z,1674.00
2023-05-11T07:11:23.799Z,1671.00
2023-05-11T07:12:23.808Z,1684.00
2023-05-11T07:13:23.805Z,1701.00
2023-05-11T07:14:23.796Z,1717.00
2023-05-11T07:15:23.773Z,1737.00
2023-05-11T07:16:23.837Z,1785.00
2023-05-11T07:17:23.803Z,1848.00
2023-05-11T07:18:23.850Z,1925.00
2023-05-11T07:19:23.744Z,1980.00
2023-05-11T07:20:23.734Z,2057.00
2023-05-11T07:21:23.749Z,2144.00
2023-05-11T07:22:23.772Z,2227.00
2023-05-11T07:23:23.717Z,2285.00
2023-05-11T07:24:23.713Z,2339.00
2023-05-11T07:25:23.695Z,2392.00
2023-05-11T07:26:23.686Z,2420.00
2023-05-11T07:27:23.704Z,2436.00
2023-05-11T07:28:23.722Z,2445.00
2023-05-11T07:29:23.710Z,2457.00
2023-05-11T07:30:24.018Z,2459.00
2023-05-11T07:31:23.669Z,2465.00
2023-05-11T07:32:23.846Z,2441.00
2023-05-11T07:33:23.736Z,2431.00
2023-05-11T07:34:25.438Z,2435.00
2023-05-11T07:35:24.393Z,2456.00
2023-05-11T07:36:23.613Z,2484.00
2023-05-11T07:37:23.620Z,2511.00
2023-05-11T07:38:23.651Z,2555.00
2023-05-11T07:39:23.612Z,2590.00
2023-05-11T07:40:23.591Z,2592.00
2023-05-11T07:41:23.589Z,2588.00
2023-05-11T07:42:23.567Z,2594.00
2023-05-11T07:43:23.562Z,2602.00
2023-05-11T07:44:23.557Z,2605.00
2023-05-11T07:45:23.567Z,2640.00
2023-05-11T07:46:23.669Z,2675.00
2023-05-11T07:47:23.596Z,2720.00
2023-05-11T07:48:23.518Z,2801.00
2023-05-11T07:49:31.475Z,2886.00
2023-05-11T07:50:25.039Z,2993.00
2023-05-11T07:51:23.564Z,3092.00
2023-05-11T07:52:23.479Z,3189.00
2023-05-11T07:53:23.510Z,3242.00
2023-05-11T07:54:23.468Z,3255.00
2023-05-11T07:55:23.464Z,3263.00
2023-05-11T07:56:23.476Z,3267.00
2023-05-11T07:57:23.465Z,3266.00
2023-05-11T07:58:23.438Z,3275.00
2023-05-11T07:59:23.432Z,3274.00
2023-05-11T08:00:23.507Z,3288.00
2023-05-11T08:01:23.424Z,3327.00
2023-05-11T08:02:23.438Z,3414.00
2023-05-11T08:03:23.424Z,3563.00
2023-05-11T08:04:23.389Z,3736.00
2023-05-11T08:05:23.614Z,3893.00
2023-05-11T08:06:23.466Z,4033.00
2023-05-11T08:07:23.351Z,4148.00
2023-05-11T08:08:23.757Z,4238.00
2023-05-11T08:09:23.341Z,4312.00
2023-05-11T08:10:23.339Z,4330.00
2023-05-11T08:11:23.338Z,4330.00
2023-05-11T08:12:23.310Z,4296.00
2023-05-11T08:13:23.307Z,4268.00
2023-05-11T08:14:24.179Z,4270.00
2023-05-11T08:15:23.308Z,4298.00
2023-05-11T08:16:23.314Z,4354.00
2023-05-11T08:17:23.276Z,4453.00
2023-05-11T08:18:23.289Z,4561.00
2023-05-11T08:19:23.317Z,4589.00
2023-05-11T08:20:23.357Z,4633.00
2023-05-11T08:21:23.313Z,4644.00
2023-05-11T08:22:23.228Z,4642.00
2023-05-11T08:23:23.235Z,4712.00
2023-05-11T08:24:23.241Z,4808.00
2023-05-11T08:25:23.221Z,4820.00
2023-05-11T08:26:23.214Z,4777.00
2023-05-11T08:27:23.189Z,4665.00
2023-05-11T08:28:23.170Z,4514.00
2023-05-11T08:29:23.167Z,4375.00
2023-05-11T08:30:23.180Z,4238.00
2023-05-11T08:31:23.266Z,4142.00
2023-05-11T08:32:23.150Z,4094.00
2023-05-11T08:34:24.286Z,4022.00
2023-05-11T08:35:23.206Z,4033.00
2023-05-11T08:36:23.114Z,4085.00
2023-05-11T08:37:23.202Z,4186.00
2023-05-11T08:38:23.107Z,4286.00
2023-05-11T08:39:39.031Z,4401.00
2023-05-11T08:40:24.063Z,4514.00
2023-05-11T08:41:23.064Z,4571.00
2023-05-11T08:42:23.122Z,4591.00
2023-05-11T08:43:23.078Z,4557.00
2023-05-11T08:44:23.040Z,4515.00
2023-05-11T08:45:23.050Z,4475.00
2023-05-11T08:46:23.115Z,4400.00
2023-05-11T08:47:23.949Z,4298.00
2023-05-11T08:48:23.012Z,4188.00
2023-05-11T08:49:23.078Z,4070.00
2023-05-11T08:50:22.993Z,3956.00
2023-05-11T08:51:22.996Z,3866.00
2023-05-11T08:52:22.966Z,3763.00
2023-05-11T08:53:22.998Z,3669.00
2023-05-11T08:54:22.997Z,3597.00
2023-05-11T08:55:22.988Z,3542.00
2023-05-11T08:56:22.932Z,3558.00
2023-05-11T08:57:22.941Z,3587.00
2023-05-11T08:58:22.935Z,3587.00
2023-05-11T08:59:22.943Z,3604.00
2023-05-11T09:00:22.905Z,3666.00
2023-05-11T09:01:23.028Z,3765.00
2023-05-11T09:02:22.913Z,3857.00
2023-05-11T09:03:22.880Z,3895.00
2023-05-11T09:04:22.964Z,3923.00
2023-05-11T09:05:23.005Z,3952.00
2023-05-11T09:06:22.884Z,3941.00
2023-05-11T09:07:22.858Z,3909.00
2023-05-11T09:08:22.821Z,3875.00
2023-05-11T09:09:22.842Z,3828.00
2023-05-11T09:10:22.818Z,3821.00
2023-05-11T09:11:22.944Z,3859.00
2023-05-11T09:12:22.829Z,3891.00
2023-05-11T09:13:22.795Z,3913.00
2023-05-11T09:14:26.982Z,4000.00
2023-05-11T09:15:22.784Z,4111.00
2023-05-11T09:16:36.195Z,4202.00
2023-05-11T09:17:23.852Z,4281.00
2023-05-11T09:18:22.779Z,4349.00
2023-05-11T09:19:22.737Z,4396.00
2023-05-11T09:20:22.747Z,4417.00
2023-05-11T09:21:22.728Z,4388.00
2023-05-11T09:22:22.715Z,4273.00
2023-05-11T09:23:22.734Z,4178.00
2023-05-11T09:24:22.696Z,4133.00
2023-05-11T09:25:22.679Z,4198.00
2023-05-11T09:26:22.797Z,4305.00
2023-05-11T09:27:22.689Z,4338.00
2023-05-11T09:29:22.694Z,4189.00
2023-05-11T09:30:23.643Z,4161.00
2023-05-11T09:31:22.728Z,4099.00
2023-05-11T09:32:22.698Z,3987.00
2023-05-11T09:33:22.639Z,3995.00
2023-05-11T09:34:22.635Z,4054.00
2023-05-11T09:35:22.753Z,4107.00
2023-05-11T09:36:22.601Z,4146.00
2023-05-11T09:37:22.618Z,4205.00
2023-05-11T09:38:22.568Z,4275.00
2023-05-11T09:39:35.196Z,4397.00
2023-05-11T09:40:27.464Z,4538.00
2023-05-11T09:41:22.563Z,4703.00
2023-05-11T09:42:22.588Z,4853.00
2023-05-11T09:43:22.569Z,4979.00
2023-05-11T09:44:22.521Z,5086.00
2023-05-11T09:45:22.524Z,5159.00
2023-05-11T09:46:22.627Z,5210.00
2023-05-11T09:47:22.683Z,5230.00
2023-05-11T09:48:22.544Z,5225.00
2023-05-11T09:49:22.503Z,5239.00
2023-05-11T09:50:26.418Z,5274.00
2023-05-11T09:51:22.472Z,5343.00
2023-05-11T09:52:22.514Z,5381.00
2023-05-11T09:53:23.131Z,5406.00
2023-05-11T09:54:22.441Z,5457.00
2023-05-11T09:55:22.442Z,5547.00
2023-05-11T09:56:22.412Z,5617.00
2023-05-11T09:57:22.441Z,5539.00
2023-05-11T09:58:22.451Z,5530.00
2023-05-11T09:59:22.440Z,5578.00
2023-05-11T10:00:22.402Z,5493.00
2023-05-11T10:01:22.431Z,5335.00
2023-05-11T10:02:22.453Z,5283.00
2023-05-11T10:03:22.466Z,5227.00
2023-05-11T10:04:23.874Z,5073.00
2023-05-11T10:05:22.364Z,4923.00
2023-05-11T10:06:22.341Z,4766.00
2023-05-11T10:07:22.370Z,4558.00
2023-05-11T10:08:22.368Z,4355.00
2023-05-11T10:09:22.366Z,4273.00
2023-05-11T10:10:22.841Z,4156.00
2023-05-11T10:11:24.100Z,3990.00
2023-05-11T10:12:22.315Z,3805.00
2023-05-11T10:13:22.302Z,3764.00
2023-05-11T10:14:22.349Z,3788.00
2023-05-11T10:15:22.356Z,3817.00
2023-05-11T10:16:22.322Z,3744.00
2023-05-11T10:17:22.342Z,3583.00
2023-05-11T10:18:22.365Z,3434.00
2023-05-11T10:19:22.253Z,3298.00
2023-05-11T10:20:22.385Z,3142.00
2023-05-11T10:21:22.333Z,2969.00
2023-05-11T10:22:22.386Z,2799.00
2023-05-11T10:23:22.304Z,2689.00
2023-05-11T10:24:22.257Z,2664.00
2023-05-11T10:25:22.209Z,2663.00
2023-05-11T10:26:22.273Z,2629.00
2023-05-11T10:27:22.687Z,2630.00
2023-05-11T10:28:22.193Z,2615.00
2023-05-11T10:29:22.290Z,2625.00
2023-05-11T10:30:22.335Z,2693.00
2023-05-11T10:31:22.196Z,2776.00
2023-05-11T10:32:22.189Z,2852.00
2023-05-11T10:33:22.156Z,2936.00
2023-05-11T10:34:22.169Z,3039.00
2023-05-11T10:35:22.120Z,3139.00
2023-05-11T10:36:22.120Z,3282.00
2023-05-11T10:37:22.150Z,3480.00
2023-05-11T10:38:22.696Z,3688.00
2023-05-11T10:39:22.086Z,3912.00
2023-05-11T10:40:22.100Z,4149.00
2023-05-11T10:41:22.081Z,4346.00
2023-05-11T10:42:22.064Z,4504.00
2023-05-11T10:43:22.762Z,4640.00
2023-05-11T10:44:22.044Z,4689.00
2023-05-11T10:45:22.118Z,4688.00
2023-05-11T10:46:22.094Z,4665.00
2023-05-11T10:47:22.138Z,4618.00
2023-05-11T10:48:22.019Z,4594.00
2023-05-11T10:49:22.013Z,4560.00
2023-05-11T10:50:22.032Z,4501.00
2023-05-11T10:51:22.067Z,4453.00
2023-05-11T10:52:21.976Z,4377.00
2023-05-11T10:53:21.973Z,4223.00
2023-05-11T10:54:21.978Z,4143.00
2023-05-11T10:55:21.973Z,4179.00
2023-05-11T10:56:21.931Z,4195.00
2023-05-11T10:57:22.026Z,4156.00
2023-05-11T10:58:21.944Z,4199.00
2023-05-11T10:59:21.950Z,4336.00
2023-05-11T11:00:22.095Z,4522.00
2023-05-11T11:01:21.936Z,4500.00
2023-05-11T11:02:21.893Z,4398.00
2023-05-11T11:03:21.929Z,4347.00
2023-05-11T11:04:21.871Z,4313.00
2023-05-11T11:05:22.175Z,4213.00
2023-05-11T11:06:21.858Z,4118.00
2023-05-11T11:07:21.862Z,4111.00
2023-05-11T11:08:21.845Z,4110.00
2023-05-11T11:09:21.901Z,4104.00
2023-05-11T11:10:21.845Z,4160.00
2023-05-11T11:11:21.861Z,4290.00
2023-05-11T11:12:21.800Z,4403.00
2023-05-11T11:13:21.811Z,4524.00
2023-05-11T11:14:21.795Z,4598.00
2023-05-11T11:15:21.871Z,4639.00
2023-05-11T11:16:21.879Z,4721.00
2023-05-11T11:17:21.915Z,4812.00
2023-05-11T11:18:21.838Z,4930.00
2023-05-11T11:19:21.781Z,5054.00
2023-05-11T11:20:21.768Z,5169.00
2023-05-11T11:21:22.318Z,5317.00
2023-05-11T11:22:21.751Z,5480.00
2023-05-11T11:23:21.745Z,5580.00
2023-05-11T11:24:21.722Z,5612.00
2023-05-11T11:25:21.710Z,5604.00
2023-05-11T11:26:21.688Z,5549.00
2023-05-11T11:27:21.723Z,5517.00
2023-05-11T11:28:21.677Z,5518.00
2023-05-11T11:29:21.683Z,5546.00
2023-05-11T11:30:21.694Z,5533.00
2023-05-11T11:31:21.719Z,5526.00
2023-05-11T11:32:21.657Z,5578.00
2023-05-11T11:33:21.697Z,5767.00
2023-05-11T11:34:21.646Z,5878.00
2023-05-11T11:35:21.634Z,5865.00
2023-05-11T11:36:22.286Z,5765.00
2023-05-11T11:37:21.632Z,5600.00
2023-05-11T11:38:21.645Z,5453.00
2023-05-11T11:39:21.619Z,5370.00
2023-05-11T11:40:21.593Z,5282.00
2023-05-11T11:41:21.600Z,5149.00
2023-05-11T11:42:21.586Z,5081.00
2023-05-11T11:43:21.580Z,5061.00
2023-05-11T11:44:21.575Z,4982.00
2023-05-11T11:45:21.571Z,4889.00
2023-05-11T11:46:21.622Z,4823.00
2023-05-11T11:47:21.554Z,4736.00
2023-05-11T11:48:21.518Z,4619.00
2023-05-11T11:49:21.542Z,4487.00
2023-05-11T11:50:22.345Z,4357.00
2023-05-11T11:51:21.530Z,4241.00
2023-05-11T11:52:21.498Z,4200.00
2023-05-11T11:53:21.484Z,4187.00
2023-05-11T11:54:21.501Z,4146.00
2023-05-11T11:55:21.610Z,4056.00
2023-05-11T11:56:21.445Z,3894.00
2023-05-11T11:57:21.453Z,3742.00
2023-05-11T11:58:21.438Z,3586.00
2023-05-11T11:59:21.440Z,3453.00
2023-05-11T12:00:21.421Z,3362.00
2023-05-11T12:01:21.467Z,3340.00
2023-05-11T12:02:21.410Z,3346.00
2023-05-11T12:03:21.545Z,3350.00
2023-05-11T12:04:21.497Z,3358.00
2023-05-11T12:05:21.885Z,3353.00
2023-05-11T12:06:21.434Z,3320.00
2023-05-11T12:07:21.428Z,3261.00
2023-05-11T12:08:21.363Z,3177.00
2023-05-11T12:09:21.405Z,3082.00
2023-05-11T12:10:21.352Z,3010.00
2023-05-11T12:11:21.344Z,2983.00
2023-05-11T12:12:21.326Z,2951.00
2023-05-11T12:13:21.469Z,2890.00
2023-05-11T12:14:21.302Z,2816.00
2023-05-11T12:15:21.361Z,2759.00
2023-05-11T12:16:21.353Z,2712.00
2023-05-11T12:17:21.316Z,2686.00
2023-05-11T12:18:21.327Z,2667.00
2023-05-11T12:19:21.312Z,2646.00
2023-05-11T12:20:21.333Z,2623.00
2023-05-11T12:21:21.282Z,2609.00
2023-05-11T12:22:21.295Z,2601.00
2023-05-11T12:23:21.241Z,2586.00
2023-05-11T12:24:21.302Z,2581.00
2023-05-11T12:25:22.268Z,2582.00
2023-05-11T12:26:21.311Z,2588.00
2023-05-11T12:27:21.201Z,2581.00
2023-05-11T12:28:21.230Z,2558.00
2023-05-11T12:29:21.371Z,2518.00
2023-05-11T12:30:21.199Z,2475.00
2023-05-11T12:31:21.205Z,2420.00
2023-05-11T12:32:21.256Z,2366.00